createdAt,value
2019-02-25T00:01:46.077Z,57.60
2019-02-25T00:06:47.765Z,46.80
2019-02-25T00:11:49.759Z,54.47
2019-02-25T00:16:51.753Z,54.47
2019-02-25T00:21:55.741Z,55.57
2019-02-25T00:26:57.478Z,52.50
2019-02-25T00:31:59.533Z,56.37
2019-02-25T00:37:03.450Z,52.07
2019-02-25T00:42:05.122Z,64.90
2019-02-25T00:47:06.752Z,65.67
2019-02-25T00:52:09.073Z,55.50
2019-02-25T00:57:10.791Z,52.63
2019-02-25T01:02:12.378Z,50.40
2019-02-25T01:07:14.058Z,47.00
2019-02-25T01:12:16.065Z,42.27
2019-02-25T01:17:17.769Z,140.33
2019-02-25T01:22:19.462Z,131.27
2019-02-25T01:27:21.572Z,129.97
2019-02-25T01:32:23.374Z,93.97
2019-02-25T01:37:25.100Z,50.97
2019-02-25T01:42:26.815Z,45.70
2019-02-25T01:47:29.063Z,49.87
2019-02-25T01:52:31.209Z,44.07
2019-02-25T01:57:32.879Z,53.40
2019-02-25T02:02:34.685Z,50.63
2019-02-25T02:07:36.483Z,47.83
2019-02-25T02:12:38.697Z,46.00
2019-02-25T02:17:40.499Z,50.70
2019-02-25T02:22:42.508Z,44.93
2019-02-25T02:27:44.733Z,44.43
2019-02-25T02:32:46.543Z,40.53
2019-02-25T02:37:48.760Z,38.80
2019-02-25T02:42:57.094Z,33.40
2019-02-25T02:48:02.653Z,37.07
2019-02-25T02:53:04.427Z,35.90
2019-02-25T02:58:06.509Z,29.53
2019-02-25T03:03:08.191Z,41.57
2019-02-25T03:08:09.862Z,27.83
2019-02-25T03:13:11.642Z,31.50
2019-02-25T03:18:13.318Z,26.23
2019-02-25T03:23:14.987Z,37.43
2019-02-25T03:28:16.869Z,30.17
2019-02-25T03:33:19.172Z,26.80
2019-02-25T03:38:20.936Z,27.00
2019-02-25T03:43:22.713Z,24.30
2019-02-25T03:48:24.429Z,74.57
2019-02-25T03:53:26.545Z,29.63
2019-02-25T03:58:28.216Z,35.80
2019-02-25T04:03:30.358Z,26.43
2019-02-25T04:08:32.569Z,51.50
2019-02-25T04:13:34.268Z,30.23
2019-02-25T04:18:35.967Z,39.03
2019-02-25T04:23:37.670Z,271.43
2019-02-25T04:28:41.628Z,566.70
2019-02-25T04:33:43.551Z,29.77
2019-02-25T04:38:45.266Z,326.07
2019-02-25T04:43:47.440Z,1217.90
2019-02-25T04:48:49.755Z,729.83
2019-02-25T04:53:51.654Z,72.30
2019-02-25T04:58:53.367Z,90.67
2019-02-25T05:03:55.043Z,20.97
2019-02-25T05:08:56.689Z,178.63
2019-02-25T05:13:58.731Z,652.90
2019-02-25T05:19:00.572Z,397.50
2019-02-25T05:24:02.302Z,87.47
2019-02-25T05:29:03.926Z,119.50
2019-02-25T05:34:05.581Z,48.80
2019-02-25T05:39:07.291Z,26.87
2019-02-25T05:44:08.907Z,550.33
2019-02-25T05:49:10.789Z,345.67
2019-02-25T05:54:12.520Z,148.63
2019-02-25T05:59:14.281Z,75.03
2019-02-25T06:04:21.016Z,400.73
2019-02-25T06:09:23.072Z,460.93
2019-02-25T06:14:24.717Z,299.47
2019-02-25T06:19:28.242Z,666.20
2019-02-25T06:24:29.956Z,1279.17
2019-02-25T06:29:31.718Z,914.00
2019-02-25T06:34:33.494Z,1059.43
2019-02-25T06:39:35.201Z,402.77
2019-02-25T06:44:39.106Z,1116.13
2019-02-25T06:49:40.867Z,42.00
2019-02-25T06:54:44.385Z,957.23
2019-02-25T06:59:46.475Z,975.33
2019-02-25T07:04:49.987Z,1669.73
2019-02-25T07:09:53.501Z,1563.43
2019-02-25T07:15:12.119Z,229.47
2019-02-25T07:20:37.027Z,1632.97
2019-02-25T07:25:41.346Z,1543.13
2019-02-25T07:31:01.980Z,1513.60
2019-02-25T07:36:05.530Z,1587.13
2019-02-25T07:41:09.242Z,59.27
2019-02-25T07:46:24.883Z,96.47
2019-02-25T07:51:31.272Z,95.93
2019-02-25T07:56:37.338Z,28.10
2019-02-25T08:01:58.981Z,248.17
2019-02-25T08:07:05.471Z,75.63
2019-02-25T08:12:11.922Z,42.70
2019-02-25T08:17:15.790Z,22.47
2019-02-25T08:22:37.385Z,53.97
2019-02-25T08:27:46.731Z,208.03
2019-02-25T08:32:50.235Z,92.40
2019-02-25T08:37:54.565Z,40.27
2019-02-25T08:43:03.556Z,35.70
2019-02-25T08:48:15.971Z,26.43
2019-02-25T08:53:18.071Z,33.07
2019-02-25T08:58:19.747Z,45.43
2019-02-25T09:03:21.397Z,39.30
2019-02-25T09:08:23.269Z,35.73
2019-02-25T09:13:24.902Z,33.67
2019-02-25T09:18:26.991Z,35.47
2019-02-25T09:23:28.764Z,32.20
2019-02-25T09:28:30.418Z,27.00
2019-02-25T09:33:32.042Z,50.33
2019-02-25T09:38:34.045Z,49.23
2019-02-25T09:43:35.769Z,63.57
2019-02-25T09:48:37.850Z,41.40
2019-02-25T09:53:39.513Z,49.00
2019-02-25T09:58:41.505Z,82.93
2019-02-25T10:03:43.168Z,43.23
2019-02-25T10:08:46.520Z,44.17
2019-02-25T10:13:48.371Z,84.23
2019-02-25T10:18:49.990Z,69.10
2019-02-25T10:23:51.715Z,59.83
2019-02-25T10:28:53.334Z,95.23
2019-02-25T10:33:54.976Z,83.90
2019-02-25T10:38:56.740Z,126.03
2019-02-25T10:44:00.245Z,103.73
2019-02-25T10:49:11.214Z,143.43
2019-02-25T10:54:12.038Z,145.60
2019-02-25T10:59:13.849Z,107.40
2019-02-25T11:04:17.382Z,182.00
2019-02-25T11:09:33.014Z,195.87
2019-02-25T11:14:35.957Z,198.50
2019-02-25T11:19:38.712Z,162.03
2019-02-25T11:24:43.949Z,178.60
2019-02-25T11:29:46.200Z,176.97
2019-02-25T11:34:49.231Z,171.27
2019-02-25T11:39:52.583Z,151.63
2019-02-25T11:44:57.089Z,160.40
2019-02-25T11:49:58.423Z,161.77
2019-02-25T11:55:00.253Z,146.20
2019-02-25T12:00:02.116Z,146.03
2019-02-25T12:05:07.545Z,155.13
2019-02-25T12:10:14.049Z,129.03
2019-02-25T12:15:22.597Z,138.77
2019-02-25T12:20:24.427Z,129.20
2019-02-25T12:25:26.114Z,123.93
2019-02-25T12:30:28.207Z,122.67
2019-02-25T12:35:29.859Z,104.30
2019-02-25T12:40:31.948Z,112.03
2019-02-25T12:45:33.762Z,112.67
2019-02-25T12:50:35.509Z,98.37
2019-02-25T12:55:37.551Z,104.07
2019-02-25T13:00:39.238Z,116.33
2019-02-25T13:05:40.897Z,99.63
2019-02-25T13:10:43.365Z,97.30
2019-02-25T13:15:45.004Z,107.17
2019-02-25T13:20:46.653Z,104.07
2019-02-25T13:25:48.456Z,102.27
2019-02-25T13:30:55.323Z,98.10
2019-02-25T13:35:57.387Z,104.90
2019-02-25T13:40:58.989Z,104.77
2019-02-25T13:46:00.990Z,91.17
2019-02-25T13:51:02.692Z,96.43
2019-02-25T13:56:04.348Z,94.53
2019-02-25T14:01:06.408Z,77.27
2019-02-25T14:06:08.147Z,87.80
2019-02-25T14:11:09.951Z,79.97
2019-02-25T14:16:12.374Z,81.23
2019-02-25T14:21:14.786Z,92.83
2019-02-25T14:26:18.949Z,85.57
2019-02-25T14:31:20.825Z,95.53
2019-02-25T14:36:22.573Z,105.27
2019-02-25T14:41:24.324Z,99.77
2019-02-25T14:46:26.846Z,106.00
2019-02-25T14:51:28.650Z,112.77
2019-02-25T14:56:30.362Z,99.30
2019-02-25T15:01:32.027Z,96.20
2019-02-25T15:06:34.768Z,110.53
2019-02-25T15:11:37.400Z,109.13
2019-02-25T15:16:39.612Z,115.60
2019-02-25T15:21:43.030Z,104.80
2019-02-25T15:26:44.916Z,113.27
2019-02-25T15:31:48.517Z,100.40
2019-02-25T15:36:50.081Z,101.97
2019-02-25T15:41:53.358Z,100.40
2019-02-25T15:47:00.266Z,92.83
2019-02-25T15:52:04.427Z,103.93
2019-02-25T15:57:06.530Z,111.10
2019-02-25T16:02:09.413Z,103.00
2019-02-25T16:07:12.726Z,105.00
2019-02-25T16:12:14.814Z,103.50
2019-02-25T16:17:22.338Z,111.10
2019-02-25T16:22:26.228Z,117.17
2019-02-25T16:27:28.880Z,109.87
2019-02-25T16:32:30.945Z,120.83
2019-02-25T16:37:35.589Z,125.67
2019-02-25T16:42:42.794Z,123.00
2019-02-25T16:47:44.909Z,125.23
2019-02-25T16:52:47.315Z,131.77
2019-02-25T16:57:50.580Z,149.63
2019-02-25T17:02:52.649Z,153.27
2019-02-25T17:07:56.119Z,155.60
2019-02-25T17:12:58.003Z,169.10
2019-02-25T17:18:00.633Z,162.20
2019-02-25T17:23:02.906Z,166.63
2019-02-25T17:28:07.642Z,165.30
2019-02-25T17:33:09.996Z,157.20
2019-02-25T17:38:12.625Z,173.27
2019-02-25T17:43:15.735Z,176.10
2019-02-25T17:48:19.148Z,190.07
2019-02-25T17:53:23.990Z,173.77
2019-02-25T17:58:25.678Z,162.67
2019-02-25T18:03:27.872Z,173.10
2019-02-25T18:08:30.458Z,156.47
2019-02-25T18:13:35.255Z,176.20
2019-02-25T18:18:41.174Z,174.37
2019-02-25T18:23:41.460Z,173.83
2019-02-25T18:45:25.399Z,177.00
2019-02-25T18:50:29.010Z,175.47
2019-02-25T18:55:33.958Z,173.37
2019-02-25T19:00:41.925Z,176.43
2019-02-25T19:05:46.945Z,114.83
2019-02-25T19:10:53.212Z,103.47
2019-02-25T19:15:58.732Z,82.03
2019-02-25T19:21:02.067Z,144.43
2019-02-25T19:26:04.801Z,89.30
2019-02-25T19:31:08.671Z,100.60
2019-02-25T19:36:11.306Z,147.53
2019-02-25T19:41:15.319Z,88.50
2019-02-25T19:46:18.540Z,147.43
2019-02-25T19:51:25.120Z,129.97
2019-02-25T19:56:27.205Z,99.50
2019-02-25T20:01:29.232Z,102.53
2019-02-25T20:06:32.467Z,165.93
2019-02-25T20:11:35.036Z,123.37
2019-02-25T20:16:37.307Z,112.77
2019-02-25T20:21:39.224Z,111.87
2019-02-25T20:26:41.269Z,173.83
2019-02-25T20:31:43.509Z,93.27
2019-02-25T20:36:48.336Z,84.73
2019-02-25T20:41:54.429Z,107.17
2019-02-25T20:46:57.311Z,88.53
2019-02-25T20:52:01.244Z,101.87
2019-02-25T20:57:03.494Z,114.20
2019-02-25T21:02:09.677Z,196.47
2019-02-25T21:07:11.503Z,203.47
2019-02-25T21:12:15.686Z,188.47
2019-02-25T21:17:19.344Z,121.60
2019-02-25T21:22:23.135Z,126.80
2019-02-25T21:27:28.344Z,169.77
2019-02-25T21:32:29.022Z,179.07
2019-02-25T21:37:30.725Z,190.13
2019-02-25T21:42:32.362Z,81.10
2019-02-25T21:47:35.205Z,86.63
2019-02-25T21:52:38.791Z,141.03
2019-02-25T21:57:40.572Z,122.13
2019-02-25T22:02:44.056Z,223.67
2019-02-25T22:07:47.570Z,219.43
2019-02-25T22:12:50.241Z,228.27
2019-02-25T22:17:53.352Z,223.20
2019-02-25T22:22:58.712Z,172.07
2019-02-25T22:28:01.120Z,235.90
2019-02-25T22:33:04.698Z,215.13
2019-02-25T22:38:06.357Z,127.50
2019-02-25T22:43:09.865Z,196.57
2019-02-25T22:48:14.058Z,138.73
2019-02-25T22:53:15.656Z,104.63
2019-02-25T22:58:17.343Z,202.10
2019-02-25T23:03:22.193Z,89.57
2019-02-25T23:08:25.743Z,109.33
2019-02-25T23:13:29.330Z,115.83
2019-02-25T23:18:30.858Z,107.47
2019-02-25T23:23:33.519Z,134.20
2019-02-25T23:28:36.391Z,196.63
2019-02-25T23:33:41.945Z,163.17
2019-02-25T23:38:41.816Z,198.33
2019-02-25T23:43:44.541Z,203.37
2019-02-25T23:48:47.113Z,206.27
2019-02-25T23:53:50.755Z,246.93
2019-02-25T23:58:53.956Z,258.30
